createdAt,value
2023-06-11T00:00:45.837Z,50.852814
2023-06-11T00:01:45.825Z,50.852821
2023-06-11T00:02:45.981Z,50.852818
2023-06-11T00:03:45.881Z,50.852829
2023-06-11T00:04:45.941Z,50.852829
2023-06-11T00:05:45.768Z,50.852825
2023-06-11T00:06:45.889Z,50.852829
2023-06-11T00:07:45.783Z,50.852840
2023-06-11T00:08:45.777Z,50.852837
2023-06-11T00:09:45.750Z,50.852829
2023-06-11T00:10:45.825Z,50.852856
2023-06-11T00:11:45.737Z,50.852833
2023-06-11T00:12:45.755Z,50.852818
2023-06-11T00:13:45.732Z,50.852795
2023-06-11T00:14:45.733Z,50.852795
2023-06-11T00:15:45.764Z,50.852821
2023-06-11T00:16:45.819Z,50.852829
2023-06-11T00:17:45.730Z,50.852818
2023-06-11T00:18:45.724Z,50.852787
2023-06-11T00:19:45.695Z,50.852806
2023-06-11T00:20:45.695Z,50.852833
2023-06-11T00:21:45.665Z,50.852818
2023-06-11T00:22:45.699Z,50.852810
2023-06-11T00:23:45.635Z,50.852821
2023-06-11T00:24:45.635Z,50.852821
2023-06-11T00:25:45.610Z,50.852814
2023-06-11T00:26:45.633Z,50.852818
2023-06-11T00:27:45.601Z,50.852818
2023-06-11T00:28:45.606Z,50.852791
2023-06-11T00:29:45.598Z,50.852764
2023-06-11T00:30:45.608Z,50.852772
2023-06-11T00:31:45.645Z,50.852764
2023-06-11T00:32:45.633Z,50.852795
2023-06-11T00:33:45.577Z,50.852798
2023-06-11T00:34:45.562Z,50.852814
2023-06-11T00:35:45.553Z,50.852783
2023-06-11T00:36:45.553Z,50.852768
2023-06-11T00:37:45.537Z,50.852776
2023-06-11T00:38:45.530Z,50.852787
2023-06-11T00:39:45.495Z,50.852783
2023-06-11T00:40:45.527Z,50.852798
2023-06-11T00:41:45.491Z,50.852798
2023-06-11T00:42:45.490Z,50.852802
2023-06-11T00:43:45.469Z,50.852802
2023-06-11T00:44:45.506Z,50.852791
2023-06-11T00:45:45.462Z,50.852798
2023-06-11T00:46:45.449Z,50.852821
2023-06-11T00:47:45.507Z,50.852798
2023-06-11T00:48:45.447Z,50.852795
2023-06-11T00:49:45.421Z,50.852798
2023-06-11T00:50:45.467Z,50.852814
2023-06-11T00:51:45.392Z,50.852795
2023-06-11T00:52:45.397Z,50.852798
2023-06-11T00:53:45.376Z,50.852802
2023-06-11T00:54:45.371Z,50.852795
2023-06-11T00:55:45.382Z,50.852791
2023-06-11T00:56:45.401Z,50.852802
2023-06-11T00:57:45.335Z,50.852810
2023-06-11T00:58:45.391Z,50.852806
2023-06-11T00:59:45.308Z,50.852810
2023-06-11T01:00:45.364Z,50.852791
2023-06-11T01:01:45.311Z,50.852787
2023-06-11T01:02:45.342Z,50.852791
2023-06-11T01:03:45.276Z,50.852814
2023-06-11T01:04:45.382Z,50.852833
2023-06-11T01:05:45.331Z,50.852814
2023-06-11T01:06:45.281Z,50.852795
2023-06-11T01:07:45.243Z,50.852787
2023-06-11T01:08:45.275Z,50.852802
2023-06-11T01:09:45.232Z,50.852825
2023-06-11T01:10:45.251Z,50.852818
2023-06-11T01:11:45.220Z,50.852821
2023-06-11T01:12:45.264Z,50.852814
2023-06-11T01:13:45.235Z,50.852821
2023-06-11T01:14:45.241Z,50.852818
2023-06-11T01:15:45.223Z,50.852833
2023-06-11T01:16:45.196Z,50.852806
2023-06-11T01:17:45.252Z,50.852772
2023-06-11T01:18:45.186Z,50.852783
2023-06-11T01:19:45.171Z,50.852798
2023-06-11T01:20:45.161Z,50.852798
2023-06-11T01:21:45.127Z,50.852795
2023-06-11T01:22:45.169Z,50.852779
2023-06-11T01:23:45.131Z,50.852768
2023-06-11T01:24:45.128Z,50.852757
2023-06-11T01:25:45.148Z,50.852764
2023-06-11T01:26:45.112Z,50.852779
2023-06-11T01:27:45.107Z,50.852768
2023-06-11T01:28:45.102Z,50.852783
2023-06-11T01:29:45.069Z,50.852741
2023-06-11T01:30:45.091Z,50.852776
2023-06-11T01:31:45.117Z,50.852772
2023-06-11T01:32:45.087Z,50.852787
2023-06-11T01:33:45.084Z,50.852814
2023-06-11T01:34:45.065Z,50.852825
2023-06-11T01:35:45.026Z,50.852802
2023-06-11T01:36:45.050Z,50.852779
2023-06-11T01:37:45.020Z,50.852798
2023-06-11T01:38:45.037Z,50.852791
2023-06-11T01:39:45.032Z,50.852795
2023-06-11T01:40:44.990Z,50.852757
2023-06-11T01:41:44.970Z,50.852772
2023-06-11T01:42:45.002Z,50.852760
2023-06-11T01:43:44.986Z,50.852783
2023-06-11T01:44:44.977Z,50.852772
2023-06-11T01:45:44.973Z,50.852776
2023-06-11T01:46:45.000Z,50.852798
2023-06-11T01:47:44.957Z,50.852825
2023-06-11T01:48:44.932Z,50.852795
2023-06-11T01:49:44.973Z,50.852798
2023-06-11T01:50:44.908Z,50.852783
2023-06-11T01:51:44.888Z,50.852749
2023-06-11T01:52:44.893Z,50.852760
2023-06-11T01:53:44.862Z,50.852772
2023-06-11T01:54:44.908Z,50.852741
2023-06-11T01:55:44.873Z,50.852722
2023-06-11T01:56:44.854Z,50.852798
2023-06-11T01:57:44.903Z,50.852791
2023-06-11T01:58:44.850Z,50.852783
2023-06-11T01:59:44.832Z,50.852772
2023-06-11T02:00:44.862Z,50.852764
2023-06-11T02:01:44.892Z,50.852764
2023-06-11T02:02:44.948Z,50.852753
2023-06-11T02:03:44.874Z,50.852798
2023-06-11T02:04:44.790Z,50.852787
2023-06-11T02:05:44.779Z,50.852783
2023-06-11T02:06:44.792Z,50.852764
2023-06-11T02:07:44.753Z,50.852757
2023-06-11T02:08:44.814Z,50.852787
2023-06-11T02:09:44.739Z,50.852795
2023-06-11T02:10:44.759Z,50.852798
2023-06-11T02:11:44.723Z,50.852783
2023-06-11T02:12:44.729Z,50.852776
2023-06-11T02:13:44.713Z,50.852772
2023-06-11T02:14:44.791Z,50.852772
2023-06-11T02:15:44.691Z,50.852764
2023-06-11T02:16:44.720Z,50.852783
2023-06-11T02:17:44.685Z,50.852760
2023-06-11T02:18:44.684Z,50.852779
2023-06-11T02:19:44.669Z,50.852776
2023-06-11T02:20:44.703Z,50.852783
2023-06-11T02:21:44.632Z,50.852760
2023-06-11T02:22:44.686Z,50.852745
2023-06-11T02:23:44.692Z,50.852768
2023-06-11T02:24:44.665Z,50.852787
2023-06-11T02:25:44.644Z,50.852783
2023-06-11T02:26:44.631Z,50.852779
2023-06-11T02:27:44.594Z,50.852764
2023-06-11T02:28:44.592Z,50.852776
2023-06-11T02:29:44.564Z,50.852753
2023-06-11T02:30:44.578Z,50.852779
2023-06-11T02:31:44.637Z,50.852779
2023-06-11T02:32:44.618Z,50.852764
2023-06-11T02:33:44.532Z,50.852783
2023-06-11T02:34:44.538Z,50.852783
2023-06-11T02:35:44.534Z,50.852798
2023-06-11T02:36:44.556Z,50.852768
2023-06-11T02:37:44.488Z,50.852764
2023-06-11T02:38:44.513Z,50.852776
2023-06-11T02:39:44.476Z,50.852783
2023-06-11T02:40:44.487Z,50.852806
2023-06-11T02:41:44.464Z,50.852779
2023-06-11T02:42:44.481Z,50.852783
2023-06-11T02:43:44.464Z,50.852810
2023-06-11T02:44:44.461Z,50.852798
2023-06-11T02:45:44.533Z,50.852791
2023-06-11T02:46:44.475Z,50.852833
2023-06-11T02:47:44.425Z,50.852814
2023-06-11T02:48:44.418Z,50.852833
2023-06-11T02:49:44.407Z,50.852810
2023-06-11T02:50:44.429Z,50.852829
2023-06-11T02:51:44.378Z,50.852818
2023-06-11T02:52:44.402Z,50.852760
2023-06-11T02:53:44.358Z,50.852753
2023-06-11T02:54:44.410Z,50.852779
2023-06-11T02:55:44.370Z,50.852741
2023-06-11T02:56:44.349Z,50.852825
2023-06-11T02:57:44.345Z,50.852863
2023-06-11T02:58:44.332Z,50.852779
2023-06-11T02:59:44.338Z,50.852764
2023-06-11T03:00:44.316Z,50.852802
2023-06-11T03:01:44.310Z,50.852783
2023-06-11T03:02:44.357Z,50.852825
2023-06-11T03:03:44.289Z,50.852844
2023-06-11T03:04:44.280Z,50.852791
2023-06-11T03:05:44.285Z,50.852776
2023-06-11T03:06:44.257Z,50.852753
2023-06-11T03:07:44.243Z,50.852772
2023-06-11T03:08:44.273Z,50.852779
2023-06-11T03:09:44.225Z,50.852806
2023-06-11T03:10:44.230Z,50.852795
2023-06-11T03:11:44.232Z,50.852791
2023-06-11T03:12:44.216Z,50.852821
2023-06-11T03:13:44.184Z,50.852791
2023-06-11T03:14:44.198Z,50.852791
2023-06-11T03:15:44.185Z,50.852753
2023-06-11T03:16:44.185Z,50.852802
2023-06-11T03:17:44.197Z,50.852821
2023-06-11T03:18:44.171Z,50.852798
2023-06-11T03:19:44.151Z,50.852802
2023-06-11T03:20:44.148Z,50.852818
2023-06-11T03:21:44.122Z,50.852776
2023-06-11T03:22:44.153Z,50.852783
2023-06-11T03:23:44.159Z,50.852741
2023-06-11T03:24:44.108Z,50.852798
2023-06-11T03:25:44.083Z,50.852825
2023-06-11T03:26:44.093Z,50.852806
2023-06-11T03:27:44.076Z,50.852753
2023-06-11T03:28:44.095Z,50.852772
2023-06-11T03:29:44.037Z,50.852753
2023-06-11T03:30:44.116Z,50.852795
2023-06-11T03:31:44.088Z,50.852791
2023-06-11T03:32:44.076Z,50.852749
2023-06-11T03:33:44.010Z,50.852760
2023-06-11T03:34:44.597Z,50.852802
2023-06-11T03:35:44.025Z,50.852795
2023-06-11T03:36:44.046Z,50.852795
2023-06-11T03:37:43.976Z,50.852802
2023-06-11T03:38:43.994Z,50.852779
2023-06-11T03:39:43.992Z,50.852821
2023-06-11T03:40:43.979Z,50.852821
2023-06-11T03:41:43.958Z,50.852810
2023-06-11T03:42:43.970Z,50.852806
2023-06-11T03:43:43.926Z,50.852814
2023-06-11T03:44:43.927Z,50.852798
2023-06-11T03:45:43.912Z,50.852829
2023-06-11T03:46:43.970Z,50.852821
2023-06-11T03:47:43.903Z,50.852810
2023-06-11T03:48:43.903Z,50.852810
2023-06-11T03:49:43.877Z,50.852810
2023-06-11T03:50:43.952Z,50.852814
2023-06-11T03:51:43.868Z,50.852818
2023-06-11T03:52:43.888Z,50.852818
2023-06-11T03:53:43.841Z,50.852810
2023-06-11T03:54:43.857Z,50.852814
2023-06-11T03:55:43.876Z,50.852829
2023-06-11T03:56:43.836Z,50.852821
2023-06-11T03:57:43.814Z,50.852814
2023-06-11T03:58:43.817Z,50.852802
2023-06-11T03:59:43.789Z,50.852806
2023-06-11T04:00:43.810Z,50.852825
2023-06-11T04:01:43.807Z,50.852833
2023-06-11T04:02:43.873Z,50.852825
2023-06-11T04:03:43.871Z,50.852810
2023-06-11T04:04:43.823Z,50.852818
2023-06-11T04:05:43.747Z,50.852814
2023-06-11T04:06:43.774Z,50.852818
2023-06-11T04:07:43.722Z,50.852802
2023-06-11T04:08:43.734Z,50.852825
2023-06-11T04:09:43.716Z,50.852829
2023-06-11T04:10:43.761Z,50.852810
2023-06-11T04:11:43.709Z,50.852795
2023-06-11T04:12:43.732Z,50.852825
2023-06-11T04:13:43.687Z,50.852810
2023-06-11T04:14:43.702Z,50.852821
2023-06-11T04:15:43.697Z,50.852798
2023-06-11T04:16:43.694Z,50.852798
2023-06-11T04:17:43.677Z,50.852810
2023-06-11T04:18:43.644Z,50.852787
2023-06-11T04:19:43.651Z,50.852787
2023-06-11T04:20:43.652Z,50.852810
2023-06-11T04:21:43.613Z,50.852795
2023-06-11T04:22:43.650Z,50.852787
2023-06-11T04:23:43.656Z,50.852787
2023-06-11T04:24:43.600Z,50.852779
2023-06-11T04:25:43.581Z,50.852764
2023-06-11T04:26:43.584Z,50.852783
2023-06-11T04:27:43.566Z,50.852810
2023-06-11T04:28:43.596Z,50.852810
2023-06-11T04:29:43.538Z,50.852795
2023-06-11T04:30:43.549Z,50.852787
2023-06-11T04:31:43.575Z,50.852779
2023-06-11T04:32:43.562Z,50.852795
2023-06-11T04:33:43.515Z,50.852768
2023-06-11T04:34:43.533Z,50.852760
2023-06-11T04:35:43.495Z,50.852818
2023-06-11T04:36:43.509Z,50.852787
2023-06-11T04:37:43.504Z,50.852802
2023-06-11T04:38:43.480Z,50.852783
2023-06-11T04:39:43.472Z,50.852749
2023-06-11T04:40:43.542Z,50.852776
2023-06-11T04:41:43.444Z,50.852760
2023-06-11T04:42:43.454Z,50.852760
2023-06-11T04:43:43.439Z,50.852840
2023-06-11T04:44:43.443Z,50.852749
2023-06-11T04:45:43.438Z,50.852764
2023-06-11T04:46:43.471Z,50.852707
2023-06-11T04:47:43.412Z,50.852783
2023-06-11T04:48:43.403Z,50.852825
2023-06-11T04:49:43.406Z,50.852791
2023-06-11T04:50:43.390Z,50.852776
2023-06-11T04:51:43.401Z,50.852798
2023-06-11T04:52:43.389Z,50.852787
2023-06-11T04:53:43.397Z,50.852821
2023-06-11T04:54:43.427Z,50.852787
2023-06-11T04:55:43.385Z,50.852730
2023-06-11T04:56:43.394Z,50.852798
2023-06-11T04:57:43.346Z,50.852772
2023-06-11T04:58:43.375Z,50.852764
2023-06-11T04:59:43.313Z,50.852768
2023-06-11T05:00:43.337Z,50.852760
2023-06-11T05:01:43.419Z,50.852795
2023-06-11T05:02:43.338Z,50.852806
2023-06-11T05:03:43.414Z,50.852806
2023-06-11T05:04:43.322Z,50.852787
2023-06-11T05:05:43.345Z,50.852787
2023-06-11T05:06:43.270Z,50.852757
2023-06-11T05:07:43.289Z,50.852760
2023-06-11T05:08:43.268Z,50.852837
2023-06-11T05:09:45.844Z,50.852844
2023-06-11T05:10:43.280Z,50.852871
2023-06-11T05:11:43.233Z,50.852867
2023-06-11T05:12:43.259Z,50.852859
2023-06-11T05:13:43.217Z,50.852818
2023-06-11T05:14:43.248Z,50.852863
2023-06-11T05:15:43.244Z,50.852829
2023-06-11T05:16:43.306Z,50.852856
2023-06-11T05:17:43.363Z,50.852844
2023-06-11T05:18:43.211Z,50.852829
2023-06-11T05:19:43.197Z,50.852833
2023-06-11T05:20:43.181Z,50.852856
2023-06-11T05:21:43.184Z,50.852829
2023-06-11T05:22:43.192Z,50.852829
2023-06-11T05:23:43.150Z,50.852833
2023-06-11T05:24:43.166Z,50.852821
2023-06-11T05:25:43.124Z,50.852840
2023-06-11T05:26:43.222Z,50.852829
2023-06-11T05:27:43.152Z,50.852844
2023-06-11T05:28:43.136Z,50.852837
2023-06-11T05:29:45.899Z,50.852848
2023-06-11T05:30:43.102Z,50.852890
2023-06-11T05:31:43.213Z,50.852837
2023-06-11T05:32:43.173Z,50.852852
2023-06-11T05:33:43.064Z,50.852867
2023-06-11T05:34:43.099Z,50.852863
2023-06-11T05:35:43.115Z,50.852909
2023-06-11T05:36:43.074Z,50.852867
2023-06-11T05:37:43.055Z,50.852871
2023-06-11T05:38:43.079Z,50.852859
2023-06-11T05:39:43.087Z,50.852879
2023-06-11T05:40:43.071Z,50.852840
2023-06-11T05:41:43.017Z,50.852871
2023-06-11T05:42:43.041Z,50.852821
2023-06-11T05:43:43.008Z,50.852833
2023-06-11T05:44:43.033Z,50.852848
2023-06-11T05:45:43.013Z,50.852867
2023-06-11T05:46:43.131Z,50.852867
2023-06-11T05:47:43.063Z,50.852833
2023-06-11T05:48:43.049Z,50.852825
2023-06-11T05:49:43.000Z,50.852840
2023-06-11T05:50:42.969Z,50.852833
2023-06-11T05:51:42.928Z,50.852859
2023-06-11T05:52:42.955Z,50.852852
2023-06-11T05:53:42.930Z,50.852833
2023-06-11T05:54:42.953Z,50.852859
2023-06-11T05:55:42.941Z,50.852840
2023-06-11T05:56:42.960Z,50.852852
2023-06-11T05:57:42.900Z,50.852852
2023-06-11T05:58:42.898Z,50.853016
2023-06-11T05:59:42.895Z,50.852905
2023-06-11T06:00:42.932Z,50.852943
2023-06-11T06:01:42.884Z,50.852848
2023-06-11T06:02:42.954Z,50.852863
2023-06-11T06:03:42.956Z,50.852840
2023-06-11T06:04:42.893Z,50.853001
2023-06-11T06:05:42.827Z,50.852970
2023-06-11T06:06:42.845Z,50.852882
2023-06-11T06:07:42.835Z,50.852806
2023-06-11T06:08:45.474Z,50.852940
2023-06-11T06:09:42.792Z,50.852905
2023-06-11T06:10:42.802Z,50.852913
2023-06-11T06:11:42.781Z,50.852829
2023-06-11T06:12:42.825Z,50.852764
2023-06-11T06:13:42.786Z,50.852810
2023-06-11T06:14:42.820Z,50.852802
2023-06-11T06:15:42.770Z,50.852779
2023-06-11T06:16:42.807Z,50.852791
2023-06-11T06:17:42.838Z,50.852776
2023-06-11T06:18:42.774Z,50.852802
2023-06-11T06:19:42.740Z,50.852795
2023-06-11T06:20:42.765Z,50.852901
2023-06-11T06:21:42.703Z,50.852856
2023-06-11T06:22:42.797Z,50.852879
2023-06-11T06:23:42.798Z,50.852840
2023-06-11T06:24:42.714Z,50.852802
2023-06-11T06:25:42.711Z,50.852859
2023-06-11T06:26:42.687Z,50.852898
2023-06-11T06:27:42.686Z,50.852913
2023-06-11T06:28:42.671Z,50.852898
2023-06-11T06:29:42.655Z,50.852848
2023-06-11T06:30:42.691Z,50.852814
2023-06-11T06:31:42.734Z,50.852802
2023-06-11T06:32:42.657Z,50.852753
2023-06-11T06:33:42.634Z,50.852768
2023-06-11T06:34:42.628Z,50.852772
2023-06-11T06:35:42.659Z,50.852760
2023-06-11T06:36:42.644Z,50.852764
2023-06-11T06:37:42.608Z,50.852783
2023-06-11T06:38:42.623Z,50.852795
2023-06-11T06:39:42.580Z,50.852791
2023-06-11T06:40:42.591Z,50.852779
2023-06-11T06:41:42.581Z,50.852745
2023-06-11T06:42:42.582Z,50.852749
2023-06-11T06:43:42.555Z,50.852779
2023-06-11T06:44:42.562Z,50.852798
2023-06-11T06:45:42.556Z,50.852783
2023-06-11T06:46:42.555Z,50.852787
2023-06-11T06:47:42.566Z,50.852745
2023-06-11T06:48:42.608Z,50.852776
2023-06-11T06:49:42.525Z,50.852768
2023-06-11T06:50:42.528Z,50.852776
2023-06-11T06:51:42.509Z,50.852802
2023-06-11T06:52:42.521Z,50.852776
2023-06-11T06:53:42.494Z,50.852829
2023-06-11T06:54:42.481Z,50.852764
2023-06-11T06:55:42.479Z,50.852760
2023-06-11T06:56:42.482Z,50.852806
2023-06-11T06:57:42.481Z,50.852791
2023-06-11T06:58:42.452Z,50.852798
2023-06-11T06:59:42.449Z,50.852772
2023-06-11T07:00:42.447Z,50.852802
2023-06-11T07:01:42.624Z,50.852814
2023-06-11T07:02:43.028Z,50.852802
2023-06-11T07:03:42.433Z,50.852760
2023-06-11T07:04:42.440Z,50.852810
2023-06-11T07:05:42.464Z,50.852806
2023-06-11T07:06:42.396Z,50.852802
2023-06-11T07:07:43.678Z,50.852829
2023-06-11T07:08:42.411Z,50.852772
2023-06-11T07:09:42.376Z,50.852741
2023-06-11T07:10:42.408Z,50.852745
2023-06-11T07:11:42.351Z,50.852741
2023-06-11T07:12:42.394Z,50.852757
2023-06-11T07:13:42.326Z,50.852745
2023-06-11T07:14:42.379Z,50.852749
2023-06-11T07:15:42.362Z,50.852768
2023-06-11T07:16:42.430Z,50.852764
2023-06-11T07:17:42.331Z,50.852779
2023-06-11T07:18:42.336Z,50.852810
2023-06-11T07:19:42.335Z,50.852787
2023-06-11T07:20:42.327Z,50.852776
2023-06-11T07:21:42.279Z,50.852806
2023-06-11T07:22:42.484Z,50.852776
2023-06-11T07:23:42.322Z,50.852791
2023-06-11T07:24:42.281Z,50.852810
2023-06-11T07:25:42.255Z,50.852772
2023-06-11T07:26:42.267Z,50.852798
2023-06-11T07:27:42.234Z,50.852840
2023-06-11T07:28:42.266Z,50.852825
2023-06-11T07:29:42.274Z,50.852810
2023-06-11T07:30:42.272Z,50.852772
2023-06-11T07:31:42.291Z,50.852772
2023-06-11T07:32:42.281Z,50.852795
2023-06-11T07:33:42.195Z,50.852791
2023-06-11T07:34:42.411Z,50.852760
2023-06-11T07:35:42.170Z,50.852787
2023-06-11T07:36:42.236Z,50.852825
2023-06-11T07:37:42.205Z,50.852791
2023-06-11T07:38:42.184Z,50.852795
2023-06-11T07:39:42.156Z,50.852798
2023-06-11T07:40:42.191Z,50.852814
2023-06-11T07:41:42.184Z,50.852795
2023-06-11T07:42:42.155Z,50.852772
2023-06-11T07:43:42.221Z,50.852791
2023-06-11T07:44:42.171Z,50.852791
2023-06-11T07:45:42.141Z,50.852821
2023-06-11T07:46:42.229Z,50.852798
2023-06-11T07:47:42.163Z,50.852787
2023-06-11T07:48:42.115Z,50.852772
2023-06-11T07:49:42.116Z,50.852757
2023-06-11T07:50:42.097Z,50.852779
2023-06-11T07:51:42.082Z,50.852776
2023-06-11T07:52:42.085Z,50.852795
2023-06-11T07:53:42.050Z,50.852829
2023-06-11T07:54:42.070Z,50.852802
2023-06-11T07:55:42.062Z,50.852810
2023-06-11T07:56:42.055Z,50.852814
2023-06-11T07:57:42.073Z,50.852806
2023-06-11T07:58:42.027Z,50.852814
2023-06-11T07:59:42.028Z,50.852779
2023-06-11T08:00:42.067Z,50.852806
2023-06-11T08:01:42.385Z,50.852798
2023-06-11T08:02:42.346Z,50.852802
2023-06-11T08:03:42.006Z,50.852814
2023-06-11T08:04:41.998Z,50.852798
2023-06-11T08:05:42.023Z,50.852802
2023-06-11T08:06:42.015Z,50.852810
2023-06-11T08:07:41.986Z,50.852783
2023-06-11T08:08:41.981Z,50.852787
2023-06-11T08:09:41.959Z,50.852783
2023-06-11T08:10:41.989Z,50.852791
2023-06-11T08:11:41.972Z,50.852787
2023-06-11T08:12:42.066Z,50.852783
2023-06-11T08:13:41.922Z,50.852787
2023-06-11T08:14:41.944Z,50.852795
2023-06-11T08:15:41.928Z,50.852776
2023-06-11T08:16:42.092Z,50.852760
2023-06-11T08:17:42.017Z,50.852810
2023-06-11T08:18:41.928Z,50.852783
2023-06-11T08:19:41.891Z,50.852802
2023-06-11T08:20:41.921Z,50.852772
2023-06-11T08:21:41.896Z,50.852741
2023-06-11T08:22:41.914Z,50.852749
2023-06-11T08:23:41.861Z,50.852776
2023-06-11T08:24:41.857Z,50.852768
2023-06-11T08:25:41.870Z,50.852814
2023-06-11T08:26:41.934Z,50.852787
2023-06-11T08:27:41.843Z,50.852779
2023-06-11T08:28:41.838Z,50.852783
2023-06-11T08:29:41.819Z,50.852787
2023-06-11T08:30:41.849Z,50.852806
2023-06-11T08:31:41.898Z,50.852802
2023-06-11T08:32:41.828Z,50.852791
2023-06-11T08:33:44.442Z,50.852787
2023-06-11T08:34:41.813Z,50.852779
2023-06-11T08:35:41.864Z,50.852768
2023-06-11T08:36:41.801Z,50.852810
2023-06-11T08:37:41.774Z,50.852795
2023-06-11T08:38:41.894Z,50.852810
2023-06-11T08:39:41.796Z,50.852783
2023-06-11T08:40:41.769Z,50.852798
2023-06-11T08:41:41.776Z,50.852818
2023-06-11T08:42:41.800Z,50.852798
2023-06-11T08:43:41.728Z,50.852787
2023-06-11T08:44:41.728Z,50.852783
2023-06-11T08:45:41.815Z,50.852791
2023-06-11T08:46:41.760Z,50.852795
2023-06-11T08:47:41.724Z,50.852768
2023-06-11T08:48:41.733Z,50.852787
2023-06-11T08:49:41.782Z,50.852783
2023-06-11T08:50:41.692Z,50.852806
2023-06-11T08:51:41.662Z,50.852787
2023-06-11T08:52:41.680Z,50.852772
2023-06-11T08:53:41.676Z,50.852779
2023-06-11T08:54:41.699Z,50.852783
2023-06-11T08:55:41.632Z,50.852795
2023-06-11T08:56:41.692Z,50.852776
2023-06-11T08:57:41.625Z,50.852764
2023-06-11T08:58:41.640Z,50.852783
2023-06-11T08:59:41.612Z,50.852779
2023-06-11T09:00:41.641Z,50.852787
2023-06-11T09:01:41.900Z,50.852806
2023-06-11T09:02:41.656Z,50.852776
2023-06-11T09:03:41.633Z,50.852730
2023-06-11T09:04:41.869Z,50.852734
2023-06-11T09:05:41.591Z,50.852741
2023-06-11T09:06:41.684Z,50.852760
2023-06-11T09:07:41.557Z,50.852730
2023-06-11T09:08:41.568Z,50.852703
2023-06-11T09:09:41.551Z,50.852795
2023-06-11T09:10:41.554Z,50.852768
2023-06-11T09:11:41.530Z,50.852772
2023-06-11T09:12:41.678Z,50.852783
2023-06-11T09:13:41.554Z,50.852764
2023-06-11T09:14:41.520Z,50.852753
2023-06-11T09:15:41.517Z,50.852757
2023-06-11T09:16:41.699Z,50.852772
2023-06-11T09:17:41.546Z,50.852757
2023-06-11T09:18:41.493Z,50.852749
2023-06-11T09:19:41.479Z,50.852776
2023-06-11T09:20:41.483Z,50.852772
2023-06-11T09:21:41.473Z,50.852757
2023-06-11T09:22:41.493Z,50.852818
2023-06-11T09:23:41.465Z,50.852798
2023-06-11T09:24:41.475Z,50.852749
2023-06-11T09:25:41.485Z,50.852707
2023-06-11T09:26:41.460Z,50.852760
2023-06-11T09:27:41.424Z,50.852760
2023-06-11T09:28:41.441Z,50.852795
2023-06-11T09:29:41.419Z,50.852791
2023-06-11T09:30:41.437Z,50.852798
2023-06-11T09:31:42.694Z,50.852768
2023-06-11T09:32:41.594Z,50.852791
2023-06-11T09:33:41.498Z,50.852787
2023-06-11T09:34:41.439Z,50.852779
2023-06-11T09:35:41.376Z,50.852795
2023-06-11T09:36:42.640Z,50.852787
2023-06-11T09:37:41.471Z,50.852791
2023-06-11T09:38:41.373Z,50.852798
2023-06-11T09:39:41.445Z,50.852795
2023-06-11T09:40:41.382Z,50.852772
2023-06-11T09:41:41.342Z,50.852764
2023-06-11T09:42:41.383Z,50.852776
2023-06-11T09:43:41.324Z,50.852791
2023-06-11T09:44:41.583Z,50.852745
2023-06-11T09:45:41.400Z,50.852753
2023-06-11T09:46:41.320Z,50.852779
2023-06-11T09:47:41.356Z,50.852795
2023-06-11T09:48:41.363Z,50.852776
2023-06-11T09:49:41.405Z,50.852783
2023-06-11T09:50:41.325Z,50.852779
2023-06-11T09:51:41.274Z,50.852749
2023-06-11T09:52:41.280Z,50.852734
2023-06-11T09:53:41.301Z,50.852802
2023-06-11T09:54:41.273Z,50.852798
2023-06-11T09:55:41.436Z,50.852814
2023-06-11T09:56:41.263Z,50.852795
2023-06-11T09:57:41.373Z,50.852802
2023-06-11T09:58:41.232Z,50.852825
2023-06-11T09:59:41.259Z,50.852795
2023-06-11T10:00:41.269Z,50.852802
2023-06-11T10:01:41.283Z,50.852776
2023-06-11T10:02:41.312Z,50.852802
2023-06-11T10:03:41.357Z,50.852772
2023-06-11T10:04:41.221Z,50.852806
2023-06-11T10:05:41.197Z,50.852806
2023-06-11T10:06:41.193Z,50.852818
2023-06-11T10:07:41.172Z,50.852840
2023-06-11T10:08:41.272Z,50.852829
2023-06-11T10:09:41.168Z,50.852806
2023-06-11T10:10:41.259Z,50.852818
2023-06-11T10:11:41.205Z,50.852825
2023-06-11T10:12:41.165Z,50.852825
2023-06-11T10:13:41.150Z,50.852821
2023-06-11T10:14:41.180Z,50.852818
2023-06-11T10:15:41.195Z,50.852810
2023-06-11T10:16:41.220Z,50.852798
2023-06-11T10:17:43.667Z,50.852814
2023-06-11T10:18:41.196Z,50.852829
2023-06-11T10:19:41.262Z,50.852825
2023-06-11T10:20:41.128Z,50.852840
2023-06-11T10:21:41.107Z,50.852852
2023-06-11T10:22:41.126Z,50.852875
2023-06-11T10:23:41.076Z,50.852894
2023-06-11T10:24:41.100Z,50.852871
2023-06-11T10:25:41.139Z,50.852886
2023-06-11T10:26:41.078Z,50.852905
2023-06-11T10:27:41.057Z,50.852901
2023-06-11T10:28:41.117Z,50.852882
2023-06-11T10:29:41.055Z,50.852879
2023-06-11T10:30:41.073Z,50.852859
2023-06-11T10:31:41.024Z,50.852863
2023-06-11T10:32:41.124Z,50.852852
2023-06-11T10:33:41.030Z,50.852856
2023-06-11T10:34:41.240Z,50.852859
2023-06-11T10:35:41.036Z,50.852840
2023-06-11T10:36:41.023Z,50.852859
2023-06-11T10:37:41.016Z,50.852863
2023-06-11T10:38:41.104Z,50.852867
2023-06-11T10:39:40.962Z,50.852882
2023-06-11T10:40:40.983Z,50.852859
2023-06-11T10:41:40.961Z,50.852863
2023-06-11T10:42:40.995Z,50.852863
2023-06-11T10:43:40.973Z,50.852871
2023-06-11T10:44:40.961Z,50.852863
2023-06-11T10:45:40.934Z,50.852852
2023-06-11T10:46:41.018Z,50.852852
2023-06-11T10:47:40.951Z,50.852840
2023-06-11T10:48:40.961Z,50.852852
2023-06-11T10:49:40.915Z,50.852867
2023-06-11T10:50:40.919Z,50.852859
2023-06-11T10:51:40.954Z,50.852867
2023-06-11T10:52:41.136Z,50.852867
2023-06-11T10:53:40.870Z,50.852867
2023-06-11T10:54:40.909Z,50.852875
2023-06-11T10:55:40.897Z,50.852871
2023-06-11T10:56:40.922Z,50.852871
2023-06-11T10:57:40.855Z,50.852886
2023-06-11T10:58:40.876Z,50.852863
2023-06-11T10:59:40.867Z,50.852875
2023-06-11T11:00:40.850Z,50.852856
2023-06-11T11:01:40.914Z,50.852867
2023-06-11T11:02:40.918Z,50.852829
2023-06-11T11:03:40.966Z,50.852837
2023-06-11T11:04:40.826Z,50.852844
2023-06-11T11:05:40.800Z,50.852833
2023-06-11T11:06:40.813Z,50.852829
2023-06-11T11:07:40.805Z,50.852848
2023-06-11T11:08:40.788Z,50.852848
2023-06-11T11:09:40.771Z,50.852821
2023-06-11T11:10:40.778Z,50.852840
2023-06-11T11:11:40.788Z,50.852852
2023-06-11T11:12:40.802Z,50.852833
2023-06-11T11:13:40.739Z,50.852844
2023-06-11T11:14:40.758Z,50.852825
2023-06-11T11:15:40.723Z,50.852837
2023-06-11T11:16:40.800Z,50.852875
2023-06-11T11:17:40.730Z,50.852856
2023-06-11T11:18:40.731Z,50.852882
2023-06-11T11:19:40.733Z,50.852867
2023-06-11T11:20:40.750Z,50.852879
2023-06-11T11:21:40.759Z,50.852901
2023-06-11T11:22:40.710Z,50.852936
2023-06-11T11:23:40.821Z,50.852917
2023-06-11T11:24:41.055Z,50.852894